Time;durP1;ratioP1;P1;durP2;ratioP2;P2;SDS_P1;SDS_P2;PMS_P1;PMS_P2;Temp;Humidity;BMP_temperature;BMP_pressure;BME280_temperature;BME280_humidity;BME280_pressure;Samples;Min_cycle;Max_cycle;Signal;HPM_P1;HPM_P2
2020/12/25 00:02:07;;;;;;;5.72;3.00;;;6.90;99.90;;;;;;5036914;28;20029;-73
2020/12/25 00:04:35;;;;;;;6.32;3.20;;;6.80;99.90;;;;;;5053840;28;20063;-71
2020/12/25 00:07:01;;;;;;;8.43;3.00;;;6.90;99.90;;;;;;5038165;28;20033;-69
2020/12/25 00:09:26;;;;;;;5.00;3.13;;;6.70;99.90;;;;;;5054705;28;20052;-72
2020/12/25 00:11:52;;;;;;;6.63;2.95;;;6.80;99.90;;;;;;5039687;28;20028;-72
2020/12/25 00:14:18;;;;;;;5.00;2.83;;;6.90;99.90;;;;;;5058607;28;20031;-72
2020/12/25 00:16:44;;;;;;;6.10;2.95;;;6.90;99.90;;;;;;5040610;28;20033;-70
2020/12/25 00:19:09;;;;;;;4.82;2.92;;;6.90;99.90;;;;;;5055684;28;20078;-68
2020/12/25 00:21:37;;;;;;;4.25;2.67;;;7.00;99.90;;;;;;5053241;28;20025;-70
2020/12/25 00:24:05;;;;;;;4.30;2.97;;;6.90;99.90;;;;;;5055401;28;20024;-68
2020/12/25 00:26:32;;;;;;;4.95;2.50;;;6.90;99.90;;;;;;5034485;28;20127;-70
2020/12/25 00:29:00;;;;;;;4.90;2.53;;;6.80;99.90;;;;;;5053166;28;20446;-70
2020/12/25 00:31:31;;;;;;;6.15;3.00;;;7.00;99.90;;;;;;5053228;28;20025;-69
2020/12/25 00:33:59;;;;;;;7.43;4.23;;;6.90;99.90;;;;;;5037299;28;20469;-70
2020/12/25 00:36:26;;;;;;;6.13;3.17;;;6.80;99.90;;;;;;5035865;28;20263;-69
2020/12/25 00:38:52;;;;;;;4.88;2.72;;;6.70;99.90;;;;;;5036194;28;20029;-70
2020/12/25 00:41:18;;;;;;;6.80;3.75;;;6.80;99.90;;;;;;5035638;28;20032;-68
2020/12/25 00:43:44;;;;;;;6.18;3.03;;;6.80;99.90;;;;;;5037272;28;20520;-70
2020/12/25 00:46:11;;;;;;;8.85;2.88;;;6.90;99.90;;;;;;5053921;28;20104;-71
2020/12/25 00:48:37;;;;;;;8.07;2.33;;;6.90;99.90;;;;;;5054691;28;20023;-72
2020/12/25 00:51:03;;;;;;;4.88;3.00;;;7.10;99.90;;;;;;5038283;28;20073;-69
2020/12/25 00:53:29;;;;;;;6.22;3.03;;;7.10;99.90;;;;;;5034442;28;20030;-69
2020/12/25 00:55:54;;;;;;;5.07;2.55;;;7.10;99.90;;;;;;5018320;28;20056;-70
2020/12/25 00:58:20;;;;;;;4.97;2.80;;;7.10;99.90;;;;;;5033775;28;20026;-69
2020/12/25 01:00:45;;;;;;;4.97;2.80;;;7.10;99.90;;;;;;5034882;28;20059;-73
2020/12/25 01:03:11;;;;;;;5.45;3.00;;;7.00;99.90;;;;;;5034487;28;20029;-70
2020/12/25 01:05:37;;;;;;;5.20;2.50;;;7.00;99.90;;;;;;5032681;28;20026;-69
2020/12/25 01:08:02;;;;;;;6.18;2.63;;;7.00;99.90;;;;;;5015251;28;20026;-69
2020/12/25 01:10:28;;;;;;;7.13;3.35;;;7.00;99.90;;;;;;5029860;28;20076;-70
2020/12/25 01:12:53;;;;;;;7.15;3.15;;;7.10;99.90;;;;;;5032473;28;20079;-68
2020/12/25 01:15:19;;;;;;;4.20;2.67;;;6.90;99.90;;;;;;5032470;28;20100;-67
2020/12/25 01:17:45;;;;;;;3.67;2.33;;;7.00;99.90;;;;;;5032492;28;20120;-73
2020/12/25 01:20:10;;;;;;;4.82;2.55;;;7.00;99.90;;;;;;5031843;28;20030;-69
2020/12/25 01:22:36;;;;;;;5.65;2.75;;;7.00;99.90;;;;;;5031238;28;20108;-70
2020/12/25 01:25:02;;;;;;;3.88;2.17;;;6.90;99.90;;;;;;5014323;28;20047;-69
2020/12/25 01:27:27;;;;;;;4.50;2.90;;;6.80;99.90;;;;;;5014421;28;20065;-69
2020/12/25 01:29:53;;;;;;;5.50;2.67;;;6.80;99.90;;;;;;5032586;28;20028;-69
2020/12/25 01:32:18;;;;;;;5.10;2.40;;;6.80;99.90;;;;;;5032481;28;20029;-68
2020/12/25 01:34:44;;;;;;;4.35;2.20;;;6.90;99.90;;;;;;5032389;28;20038;-70
2020/12/25 01:37:10;;;;;;;7.72;2.28;;;6.80;99.90;;;;;;5015419;28;20033;-70
2020/12/25 01:39:35;;;;;;;5.90;2.33;;;6.80;99.90;;;;;;5014648;28;20026;-69
2020/12/25 01:42:01;;;;;;;4.10;2.15;;;6.90;99.90;;;;;;5032418;28;20032;-69
2020/12/25 01:44:26;;;;;;;4.68;1.90;;;6.90;99.90;;;;;;5032347;28;20022;-70
2020/12/25 01:46:52;;;;;;;9.40;2.60;;;6.70;99.90;;;;;;5032866;28;20360;-69
2020/12/25 01:49:18;;;;;;;5.35;2.67;;;6.70;99.90;;;;;;5033049;28;20375;-69
2020/12/25 01:51:44;;;;;;;3.03;1.80;;;6.80;99.90;;;;;;5034883;28;20170;-70
2020/12/25 01:54:10;;;;;;;3.95;2.30;;;6.80;99.90;;;;;;5017906;28;20056;-69
2020/12/25 01:56:37;;;;;;;4.90;2.70;;;6.70;99.90;;;;;;5016901;28;20041;-70
2020/12/25 01:59:03;;;;;;;8.02;2.80;;;6.70;99.90;;;;;;5016346;28;20057;-70
2020/12/25 02:01:28;;;;;;;6.43;2.65;;;6.60;99.90;;;;;;5017545;28;20041;-69
2020/12/25 02:03:54;;;;;;;3.78;2.30;;;6.70;99.90;;;;;;5036727;28;20116;-69
2020/12/25 02:06:20;;;;;;;4.25;2.17;;;6.70;99.90;;;;;;5034840;28;20033;-69
2020/12/25 02:08:45;;;;;;;6.78;1.90;;;6.70;99.90;;;;;;5034974;28;20025;-69
2020/12/25 02:11:12;;;;;;;5.85;1.95;;;6.70;99.90;;;;;;5034153;28;20454;-71
2020/12/25 02:13:38;;;;;;;3.40;1.85;;;6.60;99.90;;;;;;5034235;28;20055;-69
2020/12/25 02:16:04;;;;;;;3.22;1.58;;;6.80;99.90;;;;;;5035256;28;20466;-70
2020/12/25 02:18:39;;;;;;;3.58;1.83;;;6.70;99.90;;;;;;5034887;28;20485;-70
2020/12/25 02:21:05;;;;;;;7.88;1.77;;;6.50;99.90;;;;;;5034965;28;20017;-69
2020/12/25 02:23:31;;;;;;;3.95;1.85;;;6.50;99.90;;;;;;5051707;28;20028;-70
2020/12/25 02:25:56;;;;;;;3.60;1.58;;;6.70;99.90;;;;;;5035090;28;20094;-69
2020/12/25 02:28:22;;;;;;;5.63;1.50;;;6.50;99.90;;;;;;5034524;28;20051;-69
2020/12/25 02:30:48;;;;;;;2.13;1.30;;;6.60;99.90;;;;;;5052281;28;20037;-69
2020/12/25 02:33:13;;;;;;;2.40;1.45;;;6.60;99.90;;;;;;5052751;28;20083;-70
2020/12/25 02:35:39;;;;;;;3.78;1.80;;;6.70;99.90;;;;;;5038732;28;20490;-70
2020/12/25 02:38:04;;;;;;;4.03;1.58;;;6.70;99.90;;;;;;5059696;28;20029;-70
2020/12/25 02:40:30;;;;;;;2.75;1.65;;;6.60;99.90;;;;;;5059097;28;20029;-68
2020/12/25 02:42:56;;;;;;;3.83;1.23;;;6.60;99.90;;;;;;5059400;28;20159;-69
2020/12/25 02:45:21;;;;;;;3.17;1.40;;;6.50;99.90;;;;;;5040686;28;20054;-68
2020/12/25 02:47:48;;;;;;;4.55;1.50;;;6.50;99.90;;;;;;5058761;28;20033;-71
2020/12/25 02:50:14;;;;;;;2.60;1.10;;;6.50;99.90;;;;;;5040164;28;20238;-70
2020/12/25 02:52:40;;;;;;;2.22;1.27;;;6.50;99.90;;;;;;5056791;28;20490;-70
2020/12/25 02:55:07;;;;;;;3.95;1.00;;;6.50;99.90;;;;;;5037887;28;20083;-69
2020/12/25 02:57:32;;;;;;;1.95;1.08;;;6.40;99.90;;;;;;5055982;28;20035;-70
2020/12/25 02:59:58;;;;;;;3.17;1.65;;;6.40;99.90;;;;;;5038015;28;20538;-70
2020/12/25 03:02:23;;;;;;;2.80;1.20;;;6.40;99.90;;;;;;5057285;28;20047;-68
2020/12/25 03:04:49;;;;;;;12.02;2.25;;;6.40;99.90;;;;;;5038572;28;20025;-72
2020/12/25 03:07:15;;;;;;;3.60;1.35;;;6.30;99.90;;;;;;5057752;28;20093;-70
2020/12/25 03:09:40;;;;;;;2.95;1.10;;;6.30;99.90;;;;;;5051117;28;20051;-70
2020/12/25 03:12:07;;;;;;;2.72;0.95;;;6.40;99.90;;;;;;5036094;28;20112;-70
2020/12/25 03:14:33;;;;;;;2.67;1.38;;;6.40;99.90;;;;;;5016627;28;20383;-69
2020/12/25 03:16:59;;;;;;;2.45;1.23;;;6.40;99.90;;;;;;5033525;28;20030;-69
2020/12/25 03:19:24;;;;;;;3.30;1.13;;;6.30;99.90;;;;;;5016617;28;20040;-68
2020/12/25 03:21:50;;;;;;;2.58;0.93;;;6.30;99.90;;;;;;5034758;28;20026;-69
2020/12/25 03:24:17;;;;;;;5.40;1.50;;;6.30;99.90;;;;;;5033348;28;20463;-68
2020/12/25 03:26:42;;;;;;;1.75;1.13;;;6.30;99.90;;;;;;5032591;28;20467;-69
2020/12/25 03:29:08;;;;;;;2.33;1.48;;;6.30;99.90;;;;;;5017311;28;20032;-69
2020/12/25 03:31:34;;;;;;;3.75;1.80;;;6.20;99.90;;;;;;5033859;28;20029;-70
2020/12/25 03:33:59;;;;;;;1.77;1.08;;;6.30;99.90;;;;;;5017559;28;20053;-69
2020/12/25 03:36:25;;;;;;;3.65;1.70;;;6.40;99.90;;;;;;5035663;28;20033;-69
2020/12/25 03:38:50;;;;;;;3.15;1.08;;;6.40;99.90;;;;;;5017915;28;20515;-70
2020/12/25 03:41:16;;;;;;;1.58;0.88;;;6.30;99.90;;;;;;5032717;28;20026;-70
2020/12/25 03:43:42;;;;;;;1.92;0.98;;;6.40;99.90;;;;;;5034921;28;20052;-69
2020/12/25 03:46:07;;;;;;;1.65;1.00;;;6.40;99.90;;;;;;5033012;28;20525;-69
2020/12/25 03:48:33;;;;;;;3.30;1.10;;;6.40;99.90;;;;;;5016480;28;20021;-68
2020/12/25 03:51:00;;;;;;;2.05;0.70;;;6.30;99.90;;;;;;5034961;28;20536;-70
2020/12/25 03:53:26;;;;;;;1.40;1.13;;;6.30;99.90;;;;;;5018729;28;20026;-67
2020/12/25 03:55:51;;;;;;;4.43;1.40;;;6.20;99.90;;;;;;5034890;28;20037;-68
2020/12/25 03:58:17;;;;;;;3.88;1.45;;;6.30;99.90;;;;;;5036381;28;20032;-72
2020/12/25 04:00:43;;;;;;;3.10;1.50;;;6.20;99.90;;;;;;5034606;28;20029;-69
2020/12/25 04:03:08;;;;;;;1.70;0.90;;;6.20;99.90;;;;;;5036249;28;20068;-69
2020/12/25 04:05:34;;;;;;;3.13;1.20;;;6.20;99.90;;;;;;5034474;28;20041;-70
2020/12/25 04:08:00;;;;;;;2.60;1.00;;;6.30;99.90;;;;;;5035845;28;20087;-68
2020/12/25 04:10:25;;;;;;;2.80;1.90;;;6.30;99.90;;;;;;5034497;28;20103;-69
2020/12/25 04:12:51;;;;;;;1.98;1.20;;;6.30;99.90;;;;;;5033799;28;20092;-69
2020/12/25 04:15:16;;;;;;;3.13;1.30;;;6.20;99.90;;;;;;5016973;28;20561;-69
2020/12/25 04:17:42;;;;;;;5.10;1.25;;;6.30;99.90;;;;;;5034310;28;20032;-69
2020/12/25 04:20:08;;;;;;;2.15;1.30;;;6.20;99.90;;;;;;5026890;28;20029;-69
2020/12/25 04:22:34;;;;;;;1.00;0.85;;;6.10;99.90;;;;;;5036545;28;20040;-69
2020/12/25 04:25:00;;;;;;;3.00;1.33;;;6.20;99.90;;;;;;5037497;28;20028;-69
2020/12/25 04:27:26;;;;;;;3.15;1.50;;;6.20;99.90;;;;;;5037099;28;20029;-69
2020/12/25 04:29:51;;;;;;;2.90;1.35;;;6.20;99.90;;;;;;5036767;28;20021;-69
2020/12/25 04:32:17;;;;;;;2.22;1.38;;;6.20;99.90;;;;;;5054568;28;20459;-69
2020/12/25 04:34:43;;;;;;;1.40;1.10;;;6.20;99.90;;;;;;5051844;28;20486;-68
2020/12/25 04:37:08;;;;;;;3.85;1.13;;;6.20;99.90;;;;;;5053508;28;20061;-68
2020/12/25 04:39:35;;;;;;;3.00;1.20;;;6.20;99.90;;;;;;5035659;28;20029;-69
2020/12/25 04:42:01;;;;;;;3.47;1.20;;;6.30;99.90;;;;;;5036933;28;20111;-71
2020/12/25 04:44:26;;;;;;;2.05;1.20;;;6.40;99.90;;;;;;5037809;28;20071;-70
2020/12/25 04:46:52;;;;;;;1.77;1.25;;;6.30;99.90;;;;;;5036235;28;20033;-69
2020/12/25 04:49:21;;;;;;;2.65;1.38;;;6.40;99.90;;;;;;5054581;28;20033;-69
2020/12/25 04:51:47;;;;;;;3.05;1.70;;;6.30;99.90;;;;;;5036011;28;20056;-69
2020/12/25 04:54:13;;;;;;;1.92;1.30;;;6.40;99.90;;;;;;5054745;28;20041;-69
2020/12/25 04:56:38;;;;;;;3.35;1.23;;;6.40;99.90;;;;;;5034216;28;20033;-68
2020/12/25 04:59:04;;;;;;;3.55;1.20;;;6.30;99.90;;;;;;5052982;28;20040;-70
2020/12/25 05:01:30;;;;;;;1.88;1.58;;;6.10;99.90;;;;;;5053704;28;20029;-69
2020/12/25 05:03:56;;;;;;;1.92;1.45;;;6.20;99.90;;;;;;5051983;28;20110;-70
2020/12/25 05:06:22;;;;;;;3.90;1.60;;;6.20;99.90;;;;;;5035168;28;20061;-71
2020/12/25 05:08:49;;;;;;;2.85;1.05;;;6.10;99.90;;;;;;5034193;28;20032;-70
2020/12/25 05:11:21;;;;;;;3.63;1.10;;;6.20;99.90;;;;;;5035034;28;20367;-69
2020/12/25 05:13:50;;;;;;;6.65;1.85;;;6.00;99.90;;;;;;5052212;28;20025;-69
2020/12/25 05:16:17;;;;;;;2.83;1.73;;;6.10;99.90;;;;;;5052853;28;20447;-69
2020/12/25 05:18:49;;;;;;;7.50;1.33;;;6.20;99.90;;;;;;5051222;28;20047;-70
2020/12/25 05:21:17;;;;;;;2.17;1.20;;;6.30;99.90;;;;;;5035034;28;20489;-69
2020/12/25 05:23:43;;;;;;;1.65;1.10;;;6.30;99.90;;;;;;5051638;28;20374;-70
2020/12/25 05:26:10;;;;;;;2.53;1.27;;;6.30;99.90;;;;;;5052979;28;20463;-69
2020/12/25 05:28:39;;;;;;;4.05;1.25;;;6.20;99.90;;;;;;5034110;28;20071;-68
2020/12/25 05:31:05;;;;;;;2.30;1.55;;;6.10;99.90;;;;;;5034599;28;20059;-70
2020/12/25 05:33:32;;;;;;;2.15;1.30;;;6.20;99.90;;;;;;5034444;28;20033;-68
2020/12/25 05:35:58;;;;;;;2.08;1.60;;;6.20;99.90;;;;;;5034331;28;20029;-68
2020/12/25 05:38:27;;;;;;;1.80;1.27;;;6.20;99.90;;;;;;5052515;28;20374;-69
2020/12/25 05:40:54;;;;;;;3.00;1.33;;;6.20;99.90;;;;;;5034396;28;20104;-69
2020/12/25 05:43:20;;;;;;;1.60;1.30;;;6.10;99.90;;;;;;5035090;28;20056;-69
2020/12/25 05:45:46;;;;;;;2.45;1.20;;;6.10;99.90;;;;;;5051516;28;20040;-69
2020/12/25 05:48:12;;;;;;;3.55;2.00;;;6.10;99.90;;;;;;5051945;28;20025;-70
2020/12/25 05:50:39;;;;;;;6.05;2.35;;;6.10;99.90;;;;;;5051566;28;20033;-70
2020/12/25 05:53:05;;;;;;;2.97;1.63;;;6.10;99.90;;;;;;5034803;28;20375;-69
2020/12/25 05:55:31;;;;;;;3.42;1.90;;;6.10;99.90;;;;;;5035085;28;20032;-70
2020/12/25 05:57:57;;;;;;;6.63;2.22;;;6.00;99.90;;;;;;5051737;28;20478;-70
2020/12/25 06:00:24;;;;;;;2.28;1.98;;;6.10;99.90;;;;;;5034343;28;20032;-69
2020/12/25 06:02:51;;;;;;;3.88;1.88;;;6.20;99.90;;;;;;5035073;28;20083;-71
2020/12/25 06:05:18;;;;;;;3.72;2.53;;;6.10;99.90;;;;;;5036700;28;20029;-70
2020/12/25 06:07:55;;;;;;;2.83;1.98;;;6.00;99.90;;;;;;5037577;28;20036;-73
2020/12/25 06:10:23;;;;;;;4.93;2.42;;;5.90;99.90;;;;;;5038008;28;20049;-72
2020/12/25 06:12:49;;;;;;;2.78;2.08;;;5.90;99.90;;;;;;5058336;28;20025;-70
2020/12/25 06:15:35;;;;;;;3.60;1.85;;;6.10;99.90;;;;;;5040851;28;20553;-70
2020/12/25 06:18:10;;;;;;;3.60;1.98;;;6.00;99.90;;;;;;5055974;28;20021;-69
2020/12/25 06:20:40;;;;;;;3.05;1.67;;;6.00;99.90;;;;;;5036344;28;20483;-68
2020/12/25 06:23:07;;;;;;;2.80;1.85;;;6.10;99.90;;;;;;5021576;28;20114;-69
2020/12/25 06:25:33;;;;;;;3.38;1.75;;;6.00;99.90;;;;;;5038835;28;20022;-72
2020/12/25 06:28:00;;;;;;;3.35;2.22;;;6.00;99.90;;;;;;5035839;28;20052;-69
2020/12/25 06:30:29;;;;;;;2.40;1.88;;;5.90;99.90;;;;;;5036124;28;20033;-70
2020/12/25 06:32:56;;;;;;;3.90;2.28;;;5.90;99.90;;;;;;5035510;28;20034;-69
2020/12/25 06:35:48;;;;;;;2.63;1.83;;;5.90;99.90;;;;;;5034995;28;20072;-69
2020/12/25 06:38:16;;;;;;;7.18;1.80;;;5.90;99.90;;;;;;5014936;28;20041;-70
2020/12/25 06:40:42;;;;;;;3.55;2.25;;;5.90;99.90;;;;;;5035567;28;20379;-68
2020/12/25 06:43:18;;;;;;;3.97;2.05;;;5.90;99.90;;;;;;5036451;28;20029;-71
2020/12/25 06:45:58;;;;;;;3.00;1.60;;;5.90;99.90;;;;;;5035997;28;20025;-68
2020/12/25 06:48:28;;;;;;;4.70;1.52;;;5.80;99.90;;;;;;5039780;28;20071;-68
2020/12/25 06:50:55;;;;;;;3.08;1.88;;;5.90;99.90;;;;;;5054972;28;20029;-69
2020/12/25 06:53:41;;;;;;;2.63;1.90;;;5.80;99.90;;;;;;5055550;28;20074;-68
2020/12/25 06:56:14;;;;;;;4.55;1.65;;;5.90;99.90;;;;;;5054934;28;20029;-71
2020/12/25 06:58:46;;;;;;;4.30;1.80;;;5.80;99.90;;;;;;5036795;28;20572;-70
2020/12/25 07:01:13;;;;;;;2.17;1.63;;;5.80;99.90;;;;;;5055798;28;20044;-68
2020/12/25 07:03:38;;;;;;;4.13;2.03;;;5.90;99.90;;;;;;5055259;28;20033;-71
2020/12/25 07:06:07;;;;;;;2.13;1.70;;;5.80;99.90;;;;;;5035693;28;20505;-69
2020/12/25 07:08:43;;;;;;;3.78;2.13;;;5.90;99.90;;;;;;5055694;28;20029;-69
2020/12/25 07:11:09;;;;;;;3.42;1.70;;;5.80;99.90;;;;;;5037014;28;20505;-68
2020/12/25 07:13:36;;;;;;;3.95;2.08;;;5.70;99.90;;;;;;5037227;28;20029;-67
2020/12/25 07:16:06;;;;;;;1.75;1.63;;;5.80;99.90;;;;;;5054521;28;20025;-72
2020/12/25 07:18:32;;;;;;;3.70;2.50;;;5.80;99.90;;;;;;5054533;28;20029;-68
2020/12/25 07:21:00;;;;;;;4.65;3.03;;;5.80;99.90;;;;;;5035758;28;20028;-69
2020/12/25 07:23:26;;;;;;;2.05;1.85;;;5.80;99.90;;;;;;5054505;28;20043;-70
2020/12/25 07:25:56;;;;;;;5.60;2.20;;;5.80;99.90;;;;;;5054114;28;20029;-68
2020/12/25 07:28:23;;;;;;;3.65;2.40;;;5.80;99.90;;;;;;5054710;28;20029;-68
2020/12/25 07:30:50;;;;;;;3.22;1.90;;;5.70;99.90;;;;;;5036671;28;20074;-68
2020/12/25 07:33:16;;;;;;;5.13;2.03;;;5.80;99.90;;;;;;5054324;28;20033;-70
2020/12/25 07:35:41;;;;;;;4.63;2.08;;;5.80;99.90;;;;;;5052191;28;20025;-69
2020/12/25 07:38:07;;;;;;;4.40;2.03;;;5.80;99.90;;;;;;5034198;28;20026;-69
2020/12/25 07:40:34;;;;;;;2.95;2.47;;;5.70;99.90;;;;;;5034453;28;20021;-67
2020/12/25 07:43:03;;;;;;;3.60;2.20;;;5.60;99.90;;;;;;5015859;28;20025;-68
2020/12/25 07:45:33;;;;;;;5.78;2.35;;;5.60;99.90;;;;;;5034327;28;20021;-69
2020/12/25 07:47:59;;;;;;;3.30;2.05;;;5.60;99.90;;;;;;5015611;28;20033;-68
2020/12/25 07:50:25;;;;;;;4.35;2.78;;;5.60;99.90;;;;;;5016050;28;20120;-69
2020/12/25 07:52:50;;;;;;;4.32;1.75;;;5.60;99.90;;;;;;5034021;28;20056;-68
2020/12/25 07:55:17;;;;;;;2.40;2.03;;;5.60;99.90;;;;;;5019285;28;20458;-69
2020/12/25 07:57:45;;;;;;;3.78;2.35;;;5.60;99.90;;;;;;5035938;28;20025;-69
2020/12/25 08:00:12;;;;;;;2.53;1.85;;;5.60;99.90;;;;;;5034298;28;20055;-70
2020/12/25 08:02:37;;;;;;;3.45;2.13;;;5.70;99.90;;;;;;5034375;28;20112;-70
2020/12/25 08:05:10;;;;;;;6.93;2.17;;;5.70;99.90;;;;;;5015697;28;20112;-69
2020/12/25 08:07:42;;;;;;;3.47;1.98;;;5.70;99.90;;;;;;5016352;28;20048;-68
2020/12/25 08:10:17;;;;;;;5.60;2.38;;;5.60;99.90;;;;;;5033917;28;20060;-68
2020/12/25 08:12:55;;;;;;;5.18;3.25;;;5.60;99.90;;;;;;5015504;28;20105;-69
2020/12/25 08:15:22;;;;;;;193.38;104.53;;;5.60;99.90;;;;;;5016311;28;20031;-69
2020/12/25 08:17:50;;;;;;;285.63;172.35;;;5.70;99.90;;;;;;5033024;28;20090;-68
2020/12/25 08:20:15;;;;;;;92.95;52.17;;;5.70;99.90;;;;;;5033289;28;20037;-66
2020/12/25 08:22:41;;;;;;;8.52;5.78;;;5.90;99.90;;;;;;5032093;28;20021;-68
2020/12/25 08:25:07;;;;;;;2.90;2.13;;;5.90;99.90;;;;;;5033375;28;20022;-67
2020/12/25 08:27:33;;;;;;;2.95;2.17;;;6.00;99.90;;;;;;5033355;28;20490;-68
2020/12/25 08:30:01;;;;;;;3.42;2.10;;;5.70;99.90;;;;;;5033387;28;20100;-67
2020/12/25 08:32:30;;;;;;;3.88;2.17;;;5.80;99.90;;;;;;5016038;28;20061;-67
2020/12/25 08:35:16;;;;;;;3.05;1.95;;;5.70;99.90;;;;;;5015411;28;20471;-67
2020/12/25 08:37:58;;;;;;;4.75;1.73;;;5.80;99.90;;;;;;5051965;28;20373;-69
2020/12/25 08:40:24;;;;;;;619.45;387.63;;;5.90;99.90;;;;;;5036553;28;20025;-69
2020/12/25 08:42:51;;;;;;;111.60;61.13;;;6.20;99.90;;;;;;5038196;28;20475;-69
2020/12/25 08:45:21;;;;;;;11.30;6.38;;;6.00;99.90;;;;;;5056065;28;20035;-69
2020/12/25 08:48:12;;;;;;;5.55;2.53;;;6.00;99.90;;;;;;5055746;28;20128;-67
2020/12/25 08:50:39;;;;;;;11.63;3.45;;;5.90;99.90;;;;;;5055123;28;20021;-65
2020/12/25 08:53:34;;;;;;;4.10;2.38;;;6.40;99.90;;;;;;5053459;28;20361;-69
2020/12/25 08:56:17;;;;;;;3.92;2.30;;;6.30;99.90;;;;;;5018513;28;20040;-69
2020/12/25 08:59:04;;;;;;;3.70;2.13;;;6.20;99.90;;;;;;5053270;28;20133;-68
2020/12/25 09:01:34;;;;;;;2.95;2.40;;;6.20;99.90;;;;;;5053457;28;20055;-72
2020/12/25 09:04:00;;;;;;;2.30;1.63;;;6.00;99.90;;;;;;5055783;28;20498;-69
2020/12/25 09:06:27;;;;;;;1.95;1.55;;;6.00;99.90;;;;;;5046108;28;20036;-68
2020/12/25 09:08:53;;;;;;;2.28;1.77;;;6.00;99.90;;;;;;5033556;28;20021;-68
2020/12/25 09:11:24;;;;;;;3.75;1.58;;;6.00;99.90;;;;;;5017098;28;20438;-60
2020/12/25 09:13:51;;;;;;;97.70;57.60;;;6.10;99.90;;;;;;5016796;28;20087;-69
2020/12/25 09:16:17;;;;;;;129.65;75.68;;;6.20;99.90;;;;;;5035247;28;20271;-69
2020/12/25 09:18:43;;;;;;;50.90;32.50;;;6.00;99.90;;;;;;5017577;28;20120;-72
2020/12/25 09:21:11;;;;;;;6.60;2.92;;;6.10;99.90;;;;;;5016602;28;20040;-68
2020/12/25 09:23:37;;;;;;;3.30;1.60;;;6.10;99.90;;;;;;5034238;28;20022;-69
2020/12/25 09:26:05;;;;;;;4.18;1.77;;;6.00;99.90;;;;;;5033569;28;20202;-70
2020/12/25 09:28:30;;;;;;;3.17;1.67;;;5.90;99.90;;;;;;5019883;28;20026;-67
2020/12/25 09:30:57;;;;;;;3.17;1.35;;;6.10;99.90;;;;;;5039584;28;20036;-68
2020/12/25 09:33:23;;;;;;;3.67;1.70;;;6.00;99.90;;;;;;5038057;28;20088;-69
2020/12/25 09:35:50;;;;;;;2.50;1.55;;;6.00;99.90;;;;;;5018409;28;20386;-70
2020/12/25 09:38:16;;;;;;;6.03;2.17;;;6.00;99.90;;;;;;5054372;28;20029;-69
2020/12/25 09:40:42;;;;;;;1.95;1.48;;;6.10;99.90;;;;;;5054552;28;20067;-68
2020/12/25 09:43:08;;;;;;;3.78;1.65;;;6.00;99.90;;;;;;5052749;28;20558;-69
2020/12/25 09:45:33;;;;;;;2.97;1.83;;;5.90;99.90;;;;;;5038229;28;20032;-68
2020/12/25 09:47:59;;;;;;;2.65;2.05;;;5.90;99.90;;;;;;5056420;28;20069;-70
2020/12/25 09:50:25;;;;;;;2.70;1.77;;;5.90;99.90;;;;;;5038779;28;20033;-68
2020/12/25 09:52:51;;;;;;;3.25;1.20;;;5.90;99.90;;;;;;5055773;28;20051;-68
2020/12/25 09:55:16;;;;;;;3.35;1.40;;;5.90;99.90;;;;;;5057001;28;20021;-69
2020/12/25 09:57:42;;;;;;;4.43;1.77;;;6.00;99.90;;;;;;5057341;28;20478;-68
2020/12/25 10:00:13;;;;;;;2.40;1.33;;;6.00;99.90;;;;;;5037673;28;20287;-69
2020/12/25 10:02:39;;;;;;;1.52;1.33;;;6.10;99.90;;;;;;5038737;28;20044;-69
2020/12/25 10:05:06;;;;;;;3.60;1.58;;;6.10;99.90;;;;;;5037497;28;20462;-68
2020/12/25 10:07:32;;;;;;;1.77;1.33;;;6.10;99.80;;;;;;5055934;28;20044;-68
2020/12/25 10:09:57;;;;;;;2.03;1.33;;;6.30;99.20;;;;;;5015693;28;631103;-68
2020/12/25 10:12:23;;;;;;;2.20;1.50;;;6.20;99.30;;;;;;5039616;28;20462;-67
2020/12/25 10:14:49;;;;;;;2.58;1.40;;;6.30;98.90;;;;;;5057292;28;20472;-70
2020/12/25 10:17:15;;;;;;;2.78;1.15;;;6.30;98.80;;;;;;5038379;28;20033;-70
2020/12/25 10:19:40;;;;;;;6.20;1.33;;;6.40;98.40;;;;;;5039780;28;20488;-70
2020/12/25 10:22:06;;;;;;;2.33;1.20;;;6.50;99.20;;;;;;5056804;28;20387;-68
2020/12/25 10:24:31;;;;;;;4.70;1.13;;;6.60;98.20;;;;;;5039167;28;20453;-69
2020/12/25 10:26:57;;;;;;;3.28;1.42;;;6.40;98.20;;;;;;5057445;28;20033;-71
2020/12/25 10:29:23;;;;;;;4.13;1.30;;;7.10;97.40;;;;;;5058990;28;20401;-69
2020/12/25 10:31:49;;;;;;;3.05;1.40;;;7.80;95.60;;;;;;5057952;28;20025;-69
2020/12/25 10:34:16;;;;;;;3.70;1.00;;;9.50;94.70;;;;;;5039352;28;20140;-70
2020/12/25 10:36:42;;;;;;;3.50;1.48;;;10.40;91.60;;;;;;5056632;28;20024;-69
2020/12/25 10:39:11;;;;;;;385.45;261.77;;;11.30;90.00;;;;;;5038703;28;20041;-69
2020/12/25 10:41:37;;;;;;;167.07;104.95;;;12.40;87.50;;;;;;5057470;28;20031;-70
2020/12/25 10:44:03;;;;;;;11.65;8.32;;;12.40;81.90;;;;;;5038483;28;20025;-67
2020/12/25 10:46:29;;;;;;;4.85;1.25;;;11.40;84.20;;;;;;5039011;28;20033;-70
2020/12/25 10:48:54;;;;;;;3.13;1.30;;;12.40;83.20;;;;;;5054856;28;20028;-69
2020/12/25 10:51:20;;;;;;;1.98;0.75;;;13.40;84.10;;;;;;5055645;28;20348;-69
2020/12/25 10:53:47;;;;;;;7.97;2.10;;;13.70;72.50;;;;;;5055185;28;20029;-54
2020/12/25 10:56:23;;;;;;;3.22;1.67;;;14.00;98.10;;;;;;5054063;28;20494;-54
2020/12/25 10:58:49;;;;;;;3.55;2.00;;;14.90;95.40;;;;;;5054891;28;20032;-58
2020/12/25 11:01:26;;;;;;;65.40;43.33;;;14.80;99.90;;;;;;5036127;28;20091;-65
2020/12/25 11:03:53;;;;;;;74.05;54.55;;;15.70;89.50;;;;;;5054131;28;20122;-69
2020/12/25 11:06:19;;;;;;;8.73;6.45;;;16.30;84.70;;;;;;5055146;28;20037;-70
2020/12/25 11:08:48;;;;;;;1.98;1.35;;;15.00;62.40;;;;;;5056208;28;20116;-70
2020/12/25 11:11:30;;;;;;;12.60;8.93;;;15.00;63.00;;;;;;5054068;28;20041;-68
2020/12/25 11:13:57;;;;;;;2.20;0.90;;;15.30;67.30;;;;;;5054656;28;20096;-68
2020/12/25 11:16:30;;;;;;;2.67;0.82;;;15.50;57.50;;;;;;5055047;28;20107;-72
2020/12/25 11:18:58;;;;;;;2.58;0.60;;;15.70;55.30;;;;;;5036609;28;20387;-69
2020/12/25 11:21:25;;;;;;;2.72;0.80;;;15.80;53.60;;;;;;5037225;28;20043;-71
2020/12/25 11:23:52;;;;;;;2.35;0.80;;;16.60;52.50;;;;;;5055218;28;20419;-68
2020/12/25 11:26:28;;;;;;;1.77;0.73;;;16.20;50.40;;;;;;5036919;28;20036;-68
2020/12/25 11:28:56;;;;;;;2.58;1.10;;;16.80;50.90;;;;;;5036803;28;20029;-70
2020/12/25 11:31:22;;;;;;;4.78;2.60;;;17.40;48.60;;;;;;5054549;28;20497;-69
2020/12/25 11:33:48;;;;;;;6.72;2.80;;;17.10;44.20;;;;;;5055311;28;20025;-68
2020/12/25 11:36:19;;;;;;;3.20;1.98;;;17.30;45.70;;;;;;5036912;28;20320;-71
2020/12/25 11:38:46;;;;;;;1.48;0.88;;;15.90;53.90;;;;;;5037848;28;20025;-69
2020/12/25 11:41:13;;;;;;;114.35;84.13;;;16.40;50.60;;;;;;5054804;28;20124;-70
2020/12/25 11:43:40;;;;;;;57.15;42.58;;;16.70;50.50;;;;;;5056798;28;20039;-72
2020/12/25 11:46:07;;;;;;;3.45;2.03;;;16.10;52.30;;;;;;5056201;28;20155;-75
2020/12/25 11:48:34;;;;;;;1.80;0.80;;;16.90;47.60;;;;;;5038738;28;20462;-70
2020/12/25 11:50:59;;;;;;;5.50;2.33;;;17.30;47.20;;;;;;5055502;28;20033;-69
2020/12/25 11:53:25;;;;;;;7.03;2.47;;;16.90;50.40;;;;;;5054833;28;20078;-65
2020/12/25 11:55:51;;;;;;;1.85;0.85;;;17.70;70.40;;;;;;5054579;28;20025;-63
2020/12/25 11:58:17;;;;;;;2.28;1.15;;;17.60;56.30;;;;;;5053973;28;20047;-63
2020/12/25 12:00:43;;;;;;;5.13;2.05;;;17.80;50.70;;;;;;5054171;28;20035;-65
2020/12/25 12:03:09;;;;;;;6.20;2.88;;;18.40;48.80;;;;;;5053283;28;20025;-66
2020/12/25 12:05:35;;;;;;;3.72;2.05;;;18.70;50.60;;;;;;5054530;28;20037;-63
2020/12/25 12:08:01;;;;;;;5.88;2.72;;;19.20;49.20;;;;;;5052953;28;20103;-70
2020/12/25 12:10:26;;;;;;;5.68;2.40;;;19.30;49.00;;;;;;5036601;28;20478;-65
2020/12/25 12:12:52;;;;;;;3.90;1.50;;;19.00;43.00;;;;;;5035888;28;20025;-64
2020/12/25 12:15:18;;;;;;;7.88;1.63;;;19.40;40.90;;;;;;5035228;28;20025;-67
2020/12/25 12:17:43;;;;;;;4.70;1.40;;;19.60;39.40;;;;;;5052674;28;20370;-69
2020/12/25 12:20:09;;;;;;;1.52;0.90;;;19.60;40.50;;;;;;5048223;28;20037;-69
2020/12/25 12:22:35;;;;;;;2.70;0.82;;;19.60;39.40;;;;;;5049470;28;20378;-69
2020/12/25 12:25:07;;;;;;;0.65;0.50;;;19.90;38.70;;;;;;5015749;28;20516;-69
2020/12/25 12:27:33;;;;;;;1.58;0.88;;;19.10;39.40;;;;;;5033681;28;20033;-69
2020/12/25 12:29:58;;;;;;;0.77;0.40;;;19.10;39.50;;;;;;5015348;28;20025;-69
2020/12/25 12:32:24;;;;;;;3.75;0.57;;;19.90;40.00;;;;;;5020060;28;20044;-69
2020/12/25 12:34:50;;;;;;;1.73;0.90;;;20.40;37.70;;;;;;5036537;28;20536;-69
2020/12/25 12:37:15;;;;;;;1.45;0.65;;;19.80;36.70;;;;;;5046713;28;20447;-69
2020/12/25 12:39:41;;;;;;;6.30;1.00;;;19.90;37.10;;;;;;5053191;28;20151;-69
2020/12/25 12:42:06;;;;;;;3.38;1.38;;;20.10;38.20;;;;;;5019490;28;20382;-68
2020/12/25 12:44:32;;;;;;;3.38;0.82;;;20.10;37.80;;;;;;5031038;28;20036;-68
2020/12/25 12:46:58;;;;;;;1.30;0.40;;;20.10;38.40;;;;;;5034957;28;20029;-66
2020/12/25 12:49:23;;;;;;;0.93;0.50;;;19.70;37.30;;;;;;5052078;28;20044;-69
2020/12/25 12:51:49;;;;;;;3.65;0.60;;;19.30;38.80;;;;;;5035808;28;20108;-73
2020/12/25 12:54:15;;;;;;;3.88;1.42;;;19.90;36.60;;;;;;5036272;28;20542;-73